Time;durP1;ratioP1;P1;durP2;ratioP2;P2;SDS_P1;SDS_P2;PMS_P1;PMS_P2;Temp;Humidity;BMP_temperature;BMP_pressure;BME280_temperature;BME280_humidity;BME280_pressure;Samples;Min_cycle;Max_cycle;Signal;HPM_P1;HPM_P2
2023/03/14 00:01:44;;;;;;;;;;;;;;;1.10;64.28;95399.94;5155853;27;1048;-59
2023/03/14 00:04:10;;;;;;;;;;;;;;;1.06;64.41;95394.94;5137545;27;975;-59
2023/03/14 00:06:37;;;;;;;;;;;;;;;0.96;64.99;95390.25;5155607;27;1045;-59
2023/03/14 00:09:03;;;;;;;;;;;;;;;0.76;64.87;95393.31;5155692;27;965;-59
2023/03/14 00:11:29;;;;;;;;;;;;;;;0.82;65.94;95397.34;5147721;27;1541;-59
2023/03/14 00:13:55;;;;;;;;;;;;;;;0.88;66.06;95397.81;5134733;27;1053;-59
2023/03/14 00:16:21;;;;;;;;;;;;;;;0.96;66.23;95395.53;5134443;27;1219;-59
2023/03/14 00:18:47;;;;;;;;;;;;;;;1.08;65.62;95399.19;5134955;27;1942;-59
2023/03/14 00:21:13;;;;;;;;;;;;;;;0.78;65.88;95391.44;5134586;27;1071;-59
2023/03/14 00:23:40;;;;;;;;;;;;;;;0.70;65.84;95397.19;5134795;27;1047;-59
2023/03/14 00:26:08;;;;;;;;;;;;;;;0.79;65.78;95401.00;5134799;27;1029;-59
2023/03/14 00:28:35;;;;;;;;;;;;;;;0.89;65.52;95390.72;5134481;27;1045;-59
2023/03/14 00:31:05;;;;;;;;;;;;;;;0.76;64.94;95391.53;5134355;27;1041;-59
2023/03/14 00:33:31;;;;;;;;;;;;;;;0.61;66.04;95387.22;5134333;27;1048;-59
2023/03/14 00:35:59;;;;;;;;;;;;;;;0.49;66.52;95390.59;5134615;27;954;-59
2023/03/14 00:38:25;;;;;;;;;;;;;;;0.64;66.93;95389.63;5134374;27;1997;-59
2023/03/14 00:40:51;;;;;;;;;;;;;;;0.78;66.15;95384.38;5134676;27;969;-59
2023/03/14 00:43:18;;;;;;;;;;;;;;;0.65;66.04;95385.25;5134248;27;1088;-59
2023/03/14 00:45:44;;;;;;;;;;;;;;;0.25;66.73;95383.25;5134238;27;973;-59
2023/03/14 00:48:10;;;;;;;;;;;;;;;0.06;67.45;95380.03;5134285;27;1049;-59
2023/03/14 00:50:36;;;;;;;;;;;;;;;0.11;67.64;95377.97;5134599;27;976;-59
2023/03/14 00:53:02;;;;;;;;;;;;;;;0.30;68.55;95383.81;5134117;27;1116;-59
2023/03/14 00:55:28;;;;;;;;;;;;;;;0.32;67.22;95370.56;5134157;27;1012;-59
2023/03/14 00:57:54;;;;;;;;;;;;;;;-0.04;67.80;95369.22;5134349;27;1909;-59
2023/03/14 01:00:20;;;;;;;;;;;;;;;-0.17;68.77;95363.00;5133971;28;1029;-59
2023/03/14 01:02:46;;;;;;;;;;;;;;;0.11;68.80;95360.41;5134338;28;997;-59
2023/03/14 01:05:12;;;;;;;;;;;;;;;0.28;68.08;95350.66;5134277;28;1016;-59
2023/03/14 01:07:38;;;;;;;;;;;;;;;0.12;67.72;95354.22;5134197;28;960;-59
2023/03/14 01:10:05;;;;;;;;;;;;;;;-0.12;68.79;95353.06;5134421;28;996;-59
2023/03/14 01:12:31;;;;;;;;;;;;;;;-0.25;69.21;95350.31;5150767;27;1626;-59
2023/03/14 01:14:57;;;;;;;;;;;;;;;-0.28;69.36;95348.72;5154921;27;1041;-59
2023/03/14 01:17:23;;;;;;;;;;;;;;;-0.22;69.39;95343.09;5154744;27;1994;-59
2023/03/14 01:19:49;;;;;;;;;;;;;;;-0.12;69.09;95337.28;5154966;27;1056;-59
2023/03/14 01:22:15;;;;;;;;;;;;;;;-0.20;69.22;95330.72;5154556;27;1083;-59
2023/03/14 01:24:41;;;;;;;;;;;;;;;-0.27;69.27;95328.53;5154678;27;961;-59
2023/03/14 01:27:07;;;;;;;;;;;;;;;-0.25;69.18;95330.16;5154698;27;1040;-59
2023/03/14 01:29:33;;;;;;;;;;;;;;;0.08;68.92;95320.34;5154369;27;1041;-59
2023/03/14 01:31:59;;;;;;;;;;;;;;;0.29;68.86;95328.69;5154953;27;988;-59
2023/03/14 01:34:25;;;;;;;;;;;;;;;0.41;68.89;95324.44;5154789;27;945;-59
2023/03/14 01:36:51;;;;;;;;;;;;;;;0.51;67.80;95329.06;5154797;27;969;-59
2023/03/14 01:39:17;;;;;;;;;;;;;;;0.14;67.72;95328.69;5154429;27;1973;-59
2023/03/14 01:41:43;;;;;;;;;;;;;;;-0.16;68.85;95323.50;5154481;27;1088;-60
2023/03/14 01:44:11;;;;;;;;;;;;;;;-0.06;69.39;95319.38;5154582;27;973;-59
2023/03/14 01:46:39;;;;;;;;;;;;;;;0.15;69.82;95319.00;5154592;27;1047;-59
2023/03/14 01:49:05;;;;;;;;;;;;;;;0.16;69.28;95325.97;5154699;27;1020;-59
2023/03/14 01:51:43;;;;;;;;;;;;;;;-0.28;69.53;95305.84;5154282;27;1053;-59
2023/03/14 01:54:32;;;;;;;;;;;;;;;-0.42;70.09;95301.38;5154347;27;1061;-59
2023/03/14 01:57:04;;;;;;;;;;;;;;;-0.21;69.53;95304.50;5140831;27;1991;-59
2023/03/14 01:59:32;;;;;;;;;;;;;;;-0.08;70.04;95310.72;5154525;27;1027;-59
2023/03/14 02:01:58;;;;;;;;;;;;;;;-0.15;69.83;95314.69;5154632;27;1013;-59
2023/03/14 02:04:27;;;;;;;;;;;;;;;-0.31;69.33;95316.53;5141598;27;1152;-59
2023/03/14 02:06:58;;;;;;;;;;;;;;;-0.37;69.79;95309.84;5136722;27;1036;-59
2023/03/14 02:09:24;;;;;;;;;;;;;;;-0.25;69.72;95310.91;5137192;27;1041;-59
2023/03/14 02:11:50;;;;;;;;;;;;;;;-0.03;69.84;95302.56;5137394;27;1413;-59
2023/03/14 02:14:47;;;;;;;;;;;;;;;0.14;69.07;95296.28;5137278;27;1028;-59
2023/03/14 02:17:16;;;;;;;;;;;;;;;-0.28;69.47;95295.34;5120828;27;1994;-59
2023/03/14 02:20:01;;;;;;;;;;;;;;;-0.29;69.76;95298.88;5137020;27;952;-59
2023/03/14 02:22:27;;;;;;;;;;;;;;;-0.14;69.77;95300.59;5136848;27;1083;-59
2023/03/14 02:25:08;;;;;;;;;;;;;;;-0.10;69.41;95293.34;5118924;27;1024;-59
2023/03/14 02:27:34;;;;;;;;;;;;;;;-0.34;69.33;95290.41;5136791;27;1073;-59
2023/03/14 02:30:02;;;;;;;;;;;;;;;-0.42;70.93;95289.13;5136761;27;954;-59
2023/03/14 02:32:30;;;;;;;;;;;;;;;-0.36;70.56;95298.41;5136710;27;1042;-59
2023/03/14 02:34:57;;;;;;;;;;;;;;;-0.18;71.02;95291.19;5136969;27;1015;-59
2023/03/14 02:37:25;;;;;;;;;;;;;;;-0.17;70.58;95294.66;5136884;27;1890;-59
2023/03/14 02:39:52;;;;;;;;;;;;;;;-0.45;69.79;95293.69;5118524;27;972;-59
2023/03/14 02:42:18;;;;;;;;;;;;;;;-0.70;70.92;95299.53;5118403;27;942;-59
2023/03/14 02:44:50;;;;;;;;;;;;;;;-0.58;70.95;95303.25;5136448;27;1012;-59
2023/03/14 02:47:16;;;;;;;;;;;;;;;-0.38;70.97;95304.69;5136404;27;1056;-59
2023/03/14 02:49:42;;;;;;;;;;;;;;;-0.23;70.00;95302.00;5136716;27;1146;-59
2023/03/14 02:52:08;;;;;;;;;;;;;;;-0.16;70.18;95299.00;5136560;27;1039;-59
2023/03/14 02:54:34;;;;;;;;;;;;;;;-0.25;69.68;95300.38;5136396;27;1024;-59
2023/03/14 02:57:00;;;;;;;;;;;;;;;-0.30;70.02;95305.94;5136276;27;1933;-59
2023/03/14 02:59:26;;;;;;;;;;;;;;;-0.17;69.86;95311.31;5136081;27;1041;-59
2023/03/14 03:01:52;;;;;;;;;;;;;;;-0.42;69.93;95306.63;5136462;27;1202;-59
2023/03/14 03:04:18;;;;;;;;;;;;;;;-0.40;70.31;95310.00;5117845;27;1056;-59
2023/03/14 03:06:44;;;;;;;;;;;;;;;-0.35;69.82;95310.59;5136401;27;953;-59
2023/03/14 03:09:10;;;;;;;;;;;;;;;-0.29;70.47;95299.72;5135973;27;1124;-59
2023/03/14 03:11:36;;;;;;;;;;;;;;;-0.35;69.75;95318.47;5144884;27;1644;-59
2023/03/14 03:14:02;;;;;;;;;;;;;;;-0.70;70.38;95310.91;5156580;27;1057;-59
2023/03/14 03:16:28;;;;;;;;;;;;;;;-0.92;71.58;95306.03;5155937;27;1103;-59
2023/03/14 03:18:54;;;;;;;;;;;;;;;-1.12;72.22;95309.81;5156052;27;1997;-59
2023/03/14 03:21:23;;;;;;;;;;;;;;;-1.32;73.11;95304.81;5156511;27;1107;-59
2023/03/14 03:23:50;;;;;;;;;;;;;;;-1.27;73.34;95313.25;5156511;27;1107;-59
2023/03/14 03:26:16;;;;;;;;;;;;;;;-1.11;72.81;95313.25;5156633;27;1028;-59
2023/03/14 03:28:42;;;;;;;;;;;;;;;-0.83;72.05;95308.13;5156298;27;1028;-59
2023/03/14 03:31:09;;;;;;;;;;;;;;;-0.59;71.87;95305.00;5138271;27;977;-59
2023/03/14 03:33:35;;;;;;;;;;;;;;;-0.68;70.66;95302.94;5156481;27;1024;-59
2023/03/14 03:36:01;;;;;;;;;;;;;;;-1.06;72.13;95312.06;5156257;27;1087;-59
2023/03/14 03:38:27;;;;;;;;;;;;;;;-0.95;72.52;95305.34;5156022;27;1907;-59
2023/03/14 03:40:53;;;;;;;;;;;;;;;-1.02;72.33;95313.59;5156503;27;1039;-59
2023/03/14 03:43:19;;;;;;;;;;;;;;;-0.95;71.66;95321.94;5156014;27;1020;-59
2023/03/14 03:45:45;;;;;;;;;;;;;;;-0.76;72.13;95318.28;5156047;27;1109;-59
2023/03/14 03:48:11;;;;;;;;;;;;;;;-0.88;71.54;95325.06;5156106;27;1063;-59
2023/03/14 03:50:43;;;;;;;;;;;;;;;-1.34;72.64;95325.03;5156137;27;1029;-59
2023/03/14 03:53:09;;;;;;;;;;;;;;;-1.34;73.48;95325.88;5155932;27;1100;-59
2023/03/14 03:55:35;;;;;;;;;;;;;;;-1.12;72.79;95325.53;5155823;27;1008;-56
2023/03/14 03:58:01;;;;;;;;;;;;;;;-1.06;73.01;95298.09;5155572;27;1988;-59
2023/03/14 04:00:27;;;;;;;;;;;;;;;-0.93;71.83;95321.84;5155736;27;1053;-59
2023/03/14 04:02:53;;;;;;;;;;;;;;;-1.15;72.25;95319.63;5155775;27;1127;-58
2023/03/14 04:05:19;;;;;;;;;;;;;;;-1.43;73.21;95316.72;5155761;27;1068;-58
2023/03/14 04:07:45;;;;;;;;;;;;;;;-1.57;73.70;95309.63;5155570;27;1219;-59
2023/03/14 04:10:12;;;;;;;;;;;;;;;-1.30;74.15;95319.53;5155740;27;1027;-59
2023/03/14 04:12:38;;;;;;;;;;;;;;;-1.27;73.17;95315.88;5119498;27;1267;-59
2023/03/14 04:15:04;;;;;;;;;;;;;;;-1.34;73.14;95304.91;5135098;27;969;-59
2023/03/14 04:17:30;;;;;;;;;;;;;;;-1.15;73.58;95302.09;5134542;27;1910;-59
2023/03/14 04:19:56;;;;;;;;;;;;;;;-1.19;72.61;95298.78;5134788;27;977;-58
2023/03/14 04:22:22;;;;;;;;;;;;;;;-1.29;73.10;95291.50;5134529;27;1214;-58
2023/03/14 04:24:48;;;;;;;;;;;;;;;-1.19;72.89;95287.44;5134977;27;962;-59
2023/03/14 04:27:14;;;;;;;;;;;;;;;-0.92;72.48;95292.06;5134390;27;1308;-59
2023/03/14 04:29:41;;;;;;;;;;;;;;;-0.74;72.13;95298.00;5134197;27;1091;-59
2023/03/14 04:32:07;;;;;;;;;;;;;;;-0.68;71.51;95280.13;5134734;27;969;-58
2023/03/14 04:34:33;;;;;;;;;;;;;;;-0.88;72.53;95285.69;5116438;27;1349;-58
2023/03/14 04:36:59;;;;;;;;;;;;;;;-1.15;72.29;95277.63;5134681;27;976;-58
2023/03/14 04:39:25;;;;;;;;;;;;;;;-1.10;73.27;95280.81;5134153;27;1929;-58
2023/03/14 04:41:52;;;;;;;;;;;;;;;-1.12;72.57;95282.69;5134605;27;1008;-58
2023/03/14 04:44:18;;;;;;;;;;;;;;;-1.25;72.83;95279.91;5134369;27;1084;-58
2023/03/14 04:46:44;;;;;;;;;;;;;;;-1.24;72.99;95279.81;5134274;27;1136;-58
2023/03/14 04:49:10;;;;;;;;;;;;;;;-1.29;72.80;95278.38;5134426;27;1052;-58
2023/03/14 04:51:36;;;;;;;;;;;;;;;-1.39;73.17;95283.31;5134487;27;1060;-58
2023/03/14 04:54:02;;;;;;;;;;;;;;;-1.29;73.72;95281.88;5134263;27;1004;-59
2023/03/14 04:56:28;;;;;;;;;;;;;;;-1.03;73.48;95287.41;5134021;27;969;-59
2023/03/14 04:58:54;;;;;;;;;;;;;;;-0.97;72.93;95279.19;5134266;27;1913;-60
2023/03/14 05:01:20;;;;;;;;;;;;;;;-0.96;72.77;95285.31;5134406;28;973;-63
2023/03/14 05:03:46;;;;;;;;;;;;;;;-0.99;72.33;95274.06;5134278;28;1068;-60
2023/03/14 05:06:12;;;;;;;;;;;;;;;-0.73;72.64;95276.94;5134015;28;1045;-59
2023/03/14 05:08:39;;;;;;;;;;;;;;;-0.58;71.97;95282.22;5134415;28;981;-60
2023/03/14 05:11:05;;;;;;;;;;;;;;;-0.50;71.78;95272.94;5120217;27;1330;-60
2023/03/14 05:13:31;;;;;;;;;;;;;;;-0.42;71.04;95270.72;5154685;27;1053;-60
2023/03/14 05:16:04;;;;;;;;;;;;;;;-0.35;70.71;95271.19;5154902;27;1176;-60
2023/03/14 05:28:59;;;;;;;;;;;;;;;0.31;69.40;95268.94;5131784;27;1282;-59
2023/03/14 05:31:26;;;;;;;;;;;;;;;0.63;69.18;95269.53;5131455;28;1111;-59
2023/03/14 05:33:52;;;;;;;;;;;;;;;0.76;68.66;95266.97;5130196;28;1509;-59
2023/03/14 05:36:18;;;;;;;;;;;;;;;0.97;67.61;95264.75;5131118;28;1898;-59
2023/03/14 05:38:44;;;;;;;;;;;;;;;1.17;66.88;95271.31;5147449;27;1033;-60
2023/03/14 05:41:10;;;;;;;;;;;;;;;1.40;66.41;95272.41;5131422;28;1024;-60
2023/03/14 05:43:36;;;;;;;;;;;;;;;1.69;66.35;95278.38;5131361;28;956;-60
2023/03/14 05:46:02;;;;;;;;;;;;;;;2.01;65.32;95272.72;5131564;27;1208;-60
2023/03/14 05:48:28;;;;;;;;;;;;;;;2.30;64.74;95270.66;5131024;28;1053;-60
2023/03/14 05:50:55;;;;;;;;;;;;;;;2.67;63.21;95265.41;5131200;28;1544;-59
2023/03/14 05:53:21;;;;;;;;;;;;;;;3.13;61.92;95263.88;5131353;27;1039;-59
2023/03/14 05:55:50;;;;;;;;;;;;;;;3.52;60.73;95259.19;5131049;27;1048;-60
2023/03/14 05:58:16;;;;;;;;;;;;;;;4.27;59.10;95266.69;5131105;27;1914;-60
2023/03/14 06:00:42;;;;;;;;;;;;;;;5.81;53.88;95280.75;5131002;28;1004;-59
2023/03/14 06:03:08;;;;;;;;;;;;;;;8.44;47.01;95296.50;5130911;27;964;-60
2023/03/14 06:05:34;;;;;;;;;;;;;;;10.82;42.13;95303.41;5130888;28;1039;-61
2023/03/14 06:08:00;;;;;;;;;;;;;;;12.43;39.19;95315.72;5130794;28;1068;-59
2023/03/14 06:10:26;;;;;;;;;;;;;;;13.35;36.43;95328.78;5122775;27;1515;-59
2023/03/14 06:12:52;;;;;;;;;;;;;;;13.99;35.55;95328.63;5123287;28;1252;-59
2023/03/14 06:15:19;;;;;;;;;;;;;;;14.55;33.56;95328.41;5130917;27;971;-60
2023/03/14 06:17:45;;;;;;;;;;;;;;;14.87;33.44;95334.53;5130582;27;1910;-59
2023/03/14 06:20:11;;;;;;;;;;;;;;;14.13;33.71;95326.19;5130760;27;921;-59
2023/03/14 06:22:39;;;;;;;;;;;;;;;12.52;35.12;95315.72;5118524;27;1205;-60
2023/03/14 06:25:05;;;;;;;;;;;;;;;10.52;39.05;95297.56;5111657;28;1570;-60
2023/03/14 06:27:31;;;;;;;;;;;;;;;8.90;42.62;95277.97;5130261;27;1221;-59
2023/03/14 06:29:57;;;;;;;;;;;;;;;8.47;43.46;95272.25;5116007;28;1031;-59
2023/03/14 06:32:23;;;;;;;;;;;;;;;7.84;44.29;95259.44;5116474;28;1223;-58
2023/03/14 06:34:49;;;;;;;;;;;;;;;7.69;46.45;95252.88;5116827;28;1071;-61
2023/03/14 06:37:15;;;;;;;;;;;;;;;7.68;46.69;95251.19;5115827;28;1910;-60
2023/03/14 06:39:43;;;;;;;;;;;;;;;7.93;46.55;95250.63;5115960;28;1124;-61
2023/03/14 06:42:09;;;;;;;;;;;;;;;7.79;46.68;95253.69;5115755;28;1034;-61
2023/03/14 06:44:35;;;;;;;;;;;;;;;8.02;46.47;95251.56;5115411;28;961;-61
2023/03/14 06:47:02;;;;;;;;;;;;;;;8.03;47.47;95250.59;5114240;28;1036;-61
2023/03/14 06:49:28;;;;;;;;;;;;;;;7.65;47.77;95235.53;5116079;28;1044;-61
2023/03/14 06:51:54;;;;;;;;;;;;;;;7.42;48.44;95227.81;5111227;28;1110;-61
2023/03/14 06:54:20;;;;;;;;;;;;;;;6.92;49.16;95227.88;5095683;28;964;-59
2023/03/14 06:56:46;;;;;;;;;;;;;;;7.06;49.12;95229.31;5095619;28;1999;-59
2023/03/14 06:59:12;;;;;;;;;;;;;;;7.50;48.63;95232.44;5095863;28;1008;-60
2023/03/14 07:01:38;;;;;;;;;;;;;;;8.04;47.59;95233.63;5097650;28;1040;-61
2023/03/14 07:04:04;;;;;;;;;;;;;;;8.05;48.15;95240.63;5116110;28;957;-60
2023/03/14 07:06:30;;;;;;;;;;;;;;;8.42;47.08;95231.03;5115947;28;964;-61
2023/03/14 07:08:56;;;;;;;;;;;;;;;8.95;46.11;95227.69;5115945;28;984;-61
2023/03/14 07:11:23;;;;;;;;;;;;;;;9.34;45.80;95232.78;5115783;28;1011;-61
2023/03/14 07:13:49;;;;;;;;;;;;;;;9.57;44.86;95228.66;5095320;28;1051;-61
2023/03/14 07:16:15;;;;;;;;;;;;;;;9.84;44.86;95228.72;5095316;28;1917;-61
2023/03/14 07:18:41;;;;;;;;;;;;;;;9.67;44.78;95231.25;5095171;28;1072;-60
2023/03/14 07:21:08;;;;;;;;;;;;;;;9.67;45.18;95228.56;5094097;28;1043;-61
2023/03/14 07:23:35;;;;;;;;;;;;;;;9.74;44.72;95229.66;5112649;28;1044;-61
2023/03/14 07:26:01;;;;;;;;;;;;;;;10.18;44.03;95226.13;5115713;28;1556;-60
2023/03/14 07:28:27;;;;;;;;;;;;;;;10.29;43.94;95227.72;5115262;28;1257;-60
2023/03/14 07:30:54;;;;;;;;;;;;;;;10.43;43.59;95221.81;5115384;28;1005;-60
2023/03/14 07:33:20;;;;;;;;;;;;;;;10.45;42.90;95224.31;5115248;28;1168;-59
2023/03/14 07:35:46;;;;;;;;;;;;;;;10.22;44.11;95208.78;5114197;28;1115;-60
2023/03/14 07:38:13;;;;;;;;;;;;;;;10.67;43.22;95212.25;5115512;28;1926;-60
2023/03/14 07:40:39;;;;;;;;;;;;;;;10.65;42.23;95207.06;5114259;28;1036;-60
2023/03/14 07:43:05;;;;;;;;;;;;;;;11.02;44.18;95205.03;5115282;28;1245;-60
2023/03/14 07:45:31;;;;;;;;;;;;;;;11.33;41.64;95211.47;5115386;28;956;-60
2023/03/14 07:47:57;;;;;;;;;;;;;;;11.72;41.60;95215.34;5115194;28;1096;-60
2023/03/14 07:50:26;;;;;;;;;;;;;;;11.90;41.33;95207.19;5115100;28;1059;-60
2023/03/14 07:52:53;;;;;;;;;;;;;;;11.31;40.59;95201.94;5104003;27;1082;-61
2023/03/14 07:55:19;;;;;;;;;;;;;;;11.38;43.02;95200.25;5098817;28;2582;-62
2023/03/14 07:57:45;;;;;;;;;;;;;;;11.67;40.95;95198.97;5094278;28;1989;-62
2023/03/14 08:00:13;;;;;;;;;;;;;;;11.88;40.47;95199.28;5094453;28;1031;-62
2023/03/14 08:02:39;;;;;;;;;;;;;;;11.76;40.00;95203.31;5102167;28;1595;-61
2023/03/14 08:05:05;;;;;;;;;;;;;;;11.82;41.72;95191.06;5096946;28;1457;-61
2023/03/14 08:07:31;;;;;;;;;;;;;;;12.17;41.10;95184.56;5113730;28;1043;-62
2023/03/14 08:09:57;;;;;;;;;;;;;;;12.40;40.31;95194.56;5114623;28;1150;-61
2023/03/14 08:12:23;;;;;;;;;;;;;;;12.62;39.33;95191.16;5106793;28;1091;-62
2023/03/14 08:14:49;;;;;;;;;;;;;;;12.76;38.40;95192.28;5094143;28;1096;-60
2023/03/14 08:17:15;;;;;;;;;;;;;;;13.16;39.07;95192.25;5094158;28;1901;-60
2023/03/14 08:19:42;;;;;;;;;;;;;;;12.92;38.38;95194.06;5094065;28;1040;-59
2023/03/14 08:22:08;;;;;;;;;;;;;;;13.25;38.02;95183.16;5097772;28;1145;-59
2023/03/14 08:24:34;;;;;;;;;;;;;;;13.22;36.79;95186.19;5114410;27;1031;-59
2023/03/14 08:27:00;;;;;;;;;;;;;;;13.36;36.73;95190.84;5114147;28;1626;-60
2023/03/14 08:29:26;;;;;;;;;;;;;;;13.24;36.04;95184.16;5114133;28;1136;-60
2023/03/14 08:31:53;;;;;;;;;;;;;;;13.42;35.28;95187.44;5112836;28;1049;-60
2023/03/14 08:34:19;;;;;;;;;;;;;;;13.57;36.44;95178.63;5093948;28;1019;-60
2023/03/14 08:36:46;;;;;;;;;;;;;;;13.78;36.63;95186.84;5093747;28;1988;-60
2023/03/14 08:39:12;;;;;;;;;;;;;;;13.85;35.49;95178.91;5093999;28;991;-60
2023/03/14 08:41:40;;;;;;;;;;;;;;;14.12;36.64;95172.13;5094019;28;965;-60
2023/03/14 08:44:07;;;;;;;;;;;;;;;13.89;36.16;95176.69;5093462;28;1110;-59
2023/03/14 08:46:33;;;;;;;;;;;;;;;14.18;36.16;95173.25;5093977;28;966;-59
2023/03/14 08:48:59;;;;;;;;;;;;;;;14.21;34.25;95173.72;5094025;28;1024;-59
2023/03/14 08:51:25;;;;;;;;;;;;;;;14.59;34.36;95172.84;5093469;28;976;-59
2023/03/14 08:53:51;;;;;;;;;;;;;;;14.63;35.37;95171.47;5110760;28;1212;-59
2023/03/14 08:56:17;;;;;;;;;;;;;;;14.33;35.84;95151.75;5112423;28;1987;-59
2023/03/14 08:58:43;;;;;;;;;;;;;;;14.85;35.47;95156.22;5113794;28;1056;-60
2023/03/14 09:01:10;;;;;;;;;;;;;;;15.18;34.02;95150.41;5113808;28;1064;-60
2023/03/14 09:03:36;;;;;;;;;;;;;;;15.07;32.90;95146.34;5113504;28;1105;-59
2023/03/14 09:06:09;;;;;;;;;;;;;;;15.36;32.56;95145.41;5113704;28;1052;-60
2023/03/14 09:08:35;;;;;;;;;;;;;;;15.27;32.11;95143.91;5113955;28;1492;-59
2023/03/14 09:11:01;;;;;;;;;;;;;;;15.05;31.87;95142.19;5113586;28;1028;-60
2023/03/14 09:13:27;;;;;;;;;;;;;;;15.06;30.78;95141.16;5113505;28;1319;-60
2023/03/14 09:15:54;;;;;;;;;;;;;;;15.16;31.25;95131.75;5113456;28;979;-60
2023/03/14 09:18:21;;;;;;;;;;;;;;;15.55;31.04;95119.72;5113143;28;1990;-59
2023/03/14 09:20:47;;;;;;;;;;;;;;;15.25;31.21;95115.47;5113493;28;1053;-59
2023/03/14 09:23:13;;;;;;;;;;;;;;;15.10;30.21;95104.72;5111845;28;1112;-60
2023/03/14 09:25:39;;;;;;;;;;;;;;;15.02;31.30;95111.06;5112032;28;1292;-60
2023/03/14 09:28:05;;;;;;;;;;;;;;;15.27;30.72;95105.31;5113324;28;1230;-60
2023/03/14 09:30:31;;;;;;;;;;;;;;;15.21;33.03;95097.00;5113525;28;1028;-60
2023/03/14 09:32:58;;;;;;;;;;;;;;;14.79;32.13;95092.38;5113074;28;961;-60
2023/03/14 09:35:25;;;;;;;;;;;;;;;15.48;32.91;95086.50;5112183;28;975;-60
2023/03/14 09:37:51;;;;;;;;;;;;;;;15.89;32.53;95085.00;5113342;28;1984;-60
2023/03/14 09:40:18;;;;;;;;;;;;;;;15.54;32.67;95079.50;5113058;28;1016;-60
2023/03/14 09:42:44;;;;;;;;;;;;;;;15.41;31.39;95078.34;5113152;28;1052;-61
2023/03/14 09:45:17;;;;;;;;;;;;;;;15.38;32.49;95064.41;5113627;28;1027;-60
2023/03/14 09:47:45;;;;;;;;;;;;;;;14.99;33.02;95052.25;5113321;28;1120;-60
2023/03/14 09:50:14;;;;;;;;;;;;;;;14.98;32.01;95048.69;5113137;28;1048;-61
2023/03/14 09:52:42;;;;;;;;;;;;;;;15.14;33.04;95050.31;5107540;28;1111;-61
2023/03/14 09:55:11;;;;;;;;;;;;;;;15.06;33.73;95038.81;5092655;28;1053;-61
2023/03/14 09:57:39;;;;;;;;;;;;;;;14.82;33.31;95032.78;5093017;28;1910;-61
2023/03/14 10:00:13;;;;;;;;;;;;;;;14.61;32.64;95038.97;5093102;28;1033;-61
2023/03/14 10:02:41;;;;;;;;;;;;;;;14.76;34.52;95028.16;5091611;28;1074;-61
2023/03/14 10:05:15;;;;;;;;;;;;;;;14.97;35.19;95024.69;5096231;28;1136;-61
2023/03/14 10:07:41;;;;;;;;;;;;;;;14.97;35.02;95019.28;5096762;28;1035;-61
2023/03/14 10:10:15;;;;;;;;;;;;;;;14.94;34.48;95008.91;5096637;28;969;-61
2023/03/14 10:12:44;;;;;;;;;;;;;;;14.93;33.88;95001.81;5096459;28;1060;-61
2023/03/14 10:15:12;;;;;;;;;;;;;;;14.96;33.51;95004.97;5096208;28;1065;-61
2023/03/14 10:17:39;;;;;;;;;;;;;;;14.99;34.21;94996.53;5096213;28;1914;-61
2023/03/14 10:20:05;;;;;;;;;;;;;;;14.91;32.54;94988.59;5096255;28;945;-61
2023/03/14 10:22:32;;;;;;;;;;;;;;;15.32;33.50;94974.44;5099252;28;1408;-61
2023/03/14 10:25:03;;;;;;;;;;;;;;;15.74;33.04;94966.47;5116411;28;1353;-61
2023/03/14 10:27:33;;;;;;;;;;;;;;;15.77;32.54;94966.09;5116246;28;1254;-61
2023/03/14 10:30:01;;;;;;;;;;;;;;;16.15;33.39;94958.41;5112546;28;1038;-61
2023/03/14 10:32:35;;;;;;;;;;;;;;;16.56;33.95;94957.56;5095979;28;1111;-61
2023/03/14 10:35:13;;;;;;;;;;;;;;;16.83;32.79;94954.09;5098041;28;953;-60
2023/03/14 10:37:50;;;;;;;;;;;;;;;16.87;30.58;94955.38;5114480;28;1987;-61
2023/03/14 10:40:17;;;;;;;;;;;;;;;16.60;30.32;94955.28;5116281;28;965;-61
2023/03/14 10:42:46;;;;;;;;;;;;;;;16.83;30.49;94946.84;5116524;27;992;-61
2023/03/14 10:45:21;;;;;;;;;;;;;;;17.20;31.63;94939.19;5115990;28;992;-61
2023/03/14 10:47:49;;;;;;;;;;;;;;;16.94;32.43;94930.03;5096402;28;1059;-61
2023/03/14 10:50:28;;;;;;;;;;;;;;;17.20;32.28;94912.19;5095956;28;1017;-61
2023/03/14 10:52:55;;;;;;;;;;;;;;;17.23;32.42;94906.38;5095687;28;1057;-61
2023/03/14 10:55:23;;;;;;;;;;;;;;;17.25;32.69;94904.28;5095610;28;1056;-61
2023/03/14 10:57:49;;;;;;;;;;;;;;;17.26;31.70;94897.81;5114929;28;1917;-61
2023/03/14 11:00:19;;;;;;;;;;;;;;;17.43;31.36;94890.13;5114644;28;1118;-61
2023/03/14 11:02:54;;;;;;;;;;;;;;;17.81;32.60;94870.50;5115874;28;1095;-61
2023/03/14 11:05:34;;;;;;;;;;;;;;;17.93;31.72;94873.41;5115785;28;1064;-61
2023/03/14 11:08:02;;;;;;;;;;;;;;;17.80;30.07;94868.03;5111401;28;972;-61
2023/03/14 11:10:37;;;;;;;;;;;;;;;17.51;32.41;94856.63;5095208;28;1095;-61
2023/03/14 11:13:06;;;;;;;;;;;;;;;17.66;31.48;94846.44;5095386;28;1045;-61
2023/03/14 11:15:52;;;;;;;;;;;;;;;17.60;30.92;94844.56;5095198;28;1051;-61
2023/03/14 11:18:18;;;;;;;;;;;;;;;17.18;30.85;94834.03;5063918;28;1914;-61
2023/03/14 11:20:47;;;;;;;;;;;;;;;17.39;31.42;94826.72;5095085;28;1021;-61
2023/03/14 11:23:20;;;;;;;;;;;;;;;17.78;32.82;94816.03;5094035;28;1057;-61
2023/03/14 11:25:58;;;;;;;;;;;;;;;17.85;31.60;94811.44;5099620;28;1344;-61
2023/03/14 11:28:38;;;;;;;;;;;;;;;17.78;31.66;94789.00;5094656;28;1199;-62
2023/03/14 11:31:12;;;;;;;;;;;;;;;17.84;31.79;94791.69;5095178;28;1020;-62
2023/03/14 11:33:46;;;;;;;;;;;;;;;17.98;32.34;94784.31;5095160;28;1035;-61
2023/03/14 11:36:16;;;;;;;;;;;;;;;18.20;32.09;94775.91;5094675;28;1040;-61
2023/03/14 11:38:56;;;;;;;;;;;;;;;18.02;32.53;94766.66;5094818;28;1985;-61
2023/03/14 11:41:29;;;;;;;;;;;;;;;17.71;32.86;94773.59;5094956;28;973;-61
2023/03/14 11:43:56;;;;;;;;;;;;;;;17.70;32.33;94761.16;5094616;28;1032;-61
2023/03/14 11:46:25;;;;;;;;;;;;;;;17.92;31.57;94764.38;5100148;28;1057;-62
2023/03/14 11:49:00;;;;;;;;;;;;;;;17.97;30.85;94755.63;5114121;28;1019;-62
2023/03/14 11:51:33;;;;;;;;;;;;;;;18.12;32.80;94747.22;5114856;28;1123;-62
2023/03/14 11:54:02;;;;;;;;;;;;;;;18.00;32.02;94748.97;5113579;28;1057;-61
2023/03/14 11:56:37;;;;;;;;;;;;;;;18.04;30.81;94733.94;5108351;28;1991;-61
2023/03/14 11:59:12;;;;;;;;;;;;;;;17.75;30.21;94736.97;5094478;28;1049;-62
2023/03/14 12:02:01;;;;;;;;;;;;;;;17.66;31.40;94726.63;5094252;28;1089;-61
2023/03/14 12:04:30;;;;;;;;;;;;;;;17.95;32.11;94714.47;5086107;28;1051;-61
2023/03/14 12:06:57;;;;;;;;;;;;;;;17.88;31.94;94708.25;5102541;28;1119;-61
2023/03/14 12:09:23;;;;;;;;;;;;;;;18.02;32.10;94703.59;5114632;28;1040;-62
2023/03/14 12:11:50;;;;;;;;;;;;;;;18.11;32.96;94697.69;5113540;28;961;-62
2023/03/14 12:14:27;;;;;;;;;;;;;;;18.27;32.14;94690.94;5114810;28;969;-62
2023/03/14 12:16:56;;;;;;;;;;;;;;;18.29;31.49;94688.00;5105096;27;1993;-62
2023/03/14 12:19:22;;;;;;;;;;;;;;;18.05;32.04;94681.53;5094283;28;965;-65
2023/03/14 12:21:54;;;;;;;;;;;;;;;17.89;33.02;94672.88;5094293;28;1022;-57
2023/03/14 12:24:43;;;;;;;;;;;;;;;17.88;33.18;94667.69;5094240;28;1062;-60
2023/03/14 12:27:11;;;;;;;;;;;;;;;17.87;32.98;94658.75;5111902;28;1576;-62
2023/03/14 12:29:57;;;;;;;;;;;;;;;17.92;32.29;94658.09;5114679;28;964;-61
2023/03/14 12:32:25;;;;;;;;;;;;;;;18.02;33.01;94644.94;5114615;28;1032;-61
2023/03/14 12:34:51;;;;;;;;;;;;;;;18.17;31.91;94651.88;5113452;28;1001;-60
2023/03/14 12:37:17;;;;;;;;;;;;;;;18.20;32.02;94638.75;5113639;28;1985;-61
2023/03/14 12:39:55;;;;;;;;;;;;;;;18.10;31.62;94636.53;5101058;28;1503;-60
2023/03/14 12:42:32;;;;;;;;;;;;;;;17.98;31.19;94632.88;5093373;28;1045;-60
2023/03/14 12:45:13;;;;;;;;;;;;;;;17.84;31.86;94623.19;5092806;28;1101;-61
2023/03/14 12:47:39;;;;;;;;;;;;;;;17.90;31.02;94616.91;5094815;28;1121;-60
2023/03/14 12:50:14;;;;;;;;;;;;;;;17.83;30.50;94614.25;5112891;28;1143;-61
2023/03/14 12:52:48;;;;;;;;;;;;;;;17.91;31.43;94611.28;5114098;28;991;-61
2023/03/14 12:55:21;;;;;;;;;;;;;;;18.01;30.68;94605.41;5114234;28;1266;-61
2023/03/14 12:57:59;;;;;;;;;;;;;;;17.72;29.30;94601.44;5114201;28;1969;-62
2023/03/14 13:00:38;;;;;;;;;;;;;;;17.51;30.18;94606.13;5114117;28;1028;-63
2023/03/14 13:03:16;;;;;;;;;;;;;;;17.83;30.10;94591.75;5113683;28;1035;-65
2023/03/14 13:05:53;;;;;;;;;;;;;;;18.11;31.92;94580.53;5112675;28;1023;-62
2023/03/14 13:08:36;;;;;;;;;;;;;;;18.20;30.95;94581.91;5113149;28;1023;-61
2023/03/14 13:11:05;;;;;;;;;;;;;;;18.24;30.22;94576.91;5113820;28;1256;-60
2023/03/14 13:13:33;;;;;;;;;;;;;;;18.14;31.13;94567.41;5113692;28;1585;-60
2023/03/14 13:16:03;;;;;;;;;;;;;;;17.83;30.54;94567.44;5113790;28;981;-59